createdAt,value
2023-02-05T00:04:46.799Z,64796.75
2023-02-05T00:09:52.842Z,64730.72
2023-02-05T00:14:57.273Z,64747.88
2023-02-05T00:20:01.733Z,64734.13
2023-02-05T00:25:08.210Z,64744.59
2023-02-05T00:30:13.971Z,64732.66
2023-02-05T00:35:18.442Z,64743.88
2023-02-05T00:40:24.717Z,64750.00
2023-02-05T00:45:35.281Z,64751.91
2023-02-05T00:50:40.966Z,64753.72
2023-02-05T00:55:47.291Z,64764.31
2023-02-05T01:00:52.700Z,64772.91
2023-02-05T01:05:57.170Z,64756.91
2023-02-05T01:11:03.365Z,64740.59
2023-02-05T01:16:08.316Z,64742.59
2023-02-05T01:21:13.049Z,64751.47
2023-02-05T01:26:19.590Z,64768.53
2023-02-05T01:31:25.304Z,64767.50
2023-02-05T01:36:29.728Z,64791.84
2023-02-05T01:41:36.448Z,64743.66
2023-02-05T01:46:42.431Z,64727.53
2023-02-05T01:51:48.848Z,64744.72
2023-02-05T01:56:59.202Z,64728.81
2023-02-05T02:02:07.350Z,64777.56
2023-02-05T02:07:15.060Z,64784.44
2023-02-05T02:12:25.380Z,64744.72
2023-02-05T02:17:30.297Z,64741.53
2023-02-05T02:22:57.917Z,64691.88
2023-02-05T02:28:08.927Z,64723.53
2023-02-05T02:33:26.958Z,64704.69
2023-02-05T02:38:35.435Z,64730.94
2023-02-05T02:43:49.660Z,64732.53
2023-02-05T02:48:58.280Z,64719.19
2023-02-05T02:54:07.678Z,64704.22
2023-02-05T02:59:18.185Z,64699.16
2023-02-05T03:04:27.140Z,64698.09
2023-02-05T03:09:39.313Z,64690.16
2023-02-05T03:14:45.766Z,64672.72
2023-02-05T03:19:54.679Z,64692.06
2023-02-05T03:24:59.476Z,64668.25
2023-02-05T03:30:06.810Z,64645.59
2023-02-05T03:35:24.029Z,64633.75
2023-02-05T03:40:38.444Z,64652.34
2023-02-05T03:45:51.461Z,64613.44
2023-02-05T03:51:08.263Z,64596.50
2023-02-05T03:56:22.229Z,64589.75
2023-02-05T04:01:30.242Z,64574.53
2023-02-05T04:06:35.007Z,64592.81
2023-02-05T04:11:40.004Z,64597.56
2023-02-05T04:16:46.121Z,64566.06
2023-02-05T04:21:50.724Z,64599.28
2023-02-05T04:26:57.004Z,64607.91
2023-02-05T04:32:03.315Z,64595.22
2023-02-05T04:37:08.130Z,64594.09
2023-02-05T04:42:12.717Z,64590.56
2023-02-05T04:47:18.923Z,64586.97
2023-02-05T04:52:23.440Z,64608.66
2023-02-05T04:57:27.968Z,64611.31
2023-02-05T05:02:33.964Z,64605.09
2023-02-05T05:07:38.456Z,64606.34
2023-02-05T05:12:43.125Z,64606.56
2023-02-05T05:17:48.992Z,64615.84
2023-02-05T05:22:53.375Z,64617.13
2023-02-05T05:27:57.807Z,64588.69
2023-02-05T05:33:03.631Z,64579.59
2023-02-05T05:38:08.283Z,64623.38
2023-02-05T05:43:31.355Z,64591.00
2023-02-05T05:48:37.315Z,64600.50
2023-02-05T05:53:41.680Z,64604.75
2023-02-05T05:58:46.633Z,64579.19
2023-02-05T06:03:52.541Z,64609.22
2023-02-05T06:08:56.900Z,64607.63
2023-02-05T06:14:01.297Z,64584.06
2023-02-05T06:19:07.536Z,64631.44
2023-02-05T06:24:12.055Z,64619.38
2023-02-05T06:29:16.592Z,64647.28
2023-02-05T06:34:23.180Z,64633.97
2023-02-05T06:39:27.923Z,64617.03
2023-02-05T06:44:35.548Z,64613.44
2023-02-05T06:49:41.427Z,64660.41
2023-02-05T06:54:45.998Z,64615.44
2023-02-05T06:59:50.400Z,64638.31
2023-02-05T07:04:56.225Z,64647.53
2023-02-05T07:10:00.699Z,64628.47
2023-02-05T07:15:05.580Z,64674.50
2023-02-05T07:20:12.657Z,64665.28
2023-02-05T07:25:17.138Z,64716.34
2023-02-05T07:30:21.765Z,64710.53
2023-02-05T07:35:27.861Z,64700.22
2023-02-05T07:40:32.281Z,64684.47
2023-02-05T07:45:37.002Z,64710.41
2023-02-05T07:50:46.324Z,64707.22
2023-02-05T07:55:50.855Z,64753.19
2023-02-05T08:00:55.377Z,64724.34
2023-02-05T08:06:04.728Z,64713.34
2023-02-05T08:11:09.753Z,64771.19
2023-02-05T08:16:15.851Z,64756.91
2023-02-05T08:21:22.675Z,64730.53
2023-02-05T08:26:27.504Z,64720.88
2023-02-05T08:31:32.080Z,64733.47
2023-02-05T08:36:38.235Z,64726.19
2023-02-05T08:41:43.128Z,64725.22
2023-02-05T08:46:50.428Z,64773.09
2023-02-05T08:51:56.609Z,64747.88
2023-02-05T08:57:01.298Z,64799.06
2023-02-05T09:02:05.823Z,64782.88
2023-02-05T09:07:11.919Z,64724.59
2023-02-05T09:12:16.466Z,64732.00
2023-02-05T09:17:21.040Z,64760.59
2023-02-05T09:22:26.894Z,64735.81
2023-02-05T09:27:31.401Z,64859.19
2023-02-05T09:32:35.907Z,64807.22
2023-02-05T09:37:41.631Z,64776.50
2023-02-05T09:42:55.377Z,64782.31
2023-02-05T09:48:15.097Z,64901.69
2023-02-05T09:53:23.084Z,64821.00
2023-02-05T09:58:32.329Z,64811.34
2023-02-05T10:03:44.896Z,64797.78
2023-02-05T10:09:02.692Z,64770.03
2023-02-05T10:14:17.536Z,64790.78
2023-02-05T10:19:52.821Z,64794.91
2023-02-05T10:25:31.554Z,64762.84
2023-02-05T10:30:41.415Z,64829.19
2023-02-05T10:35:52.715Z,64841.56
2023-02-05T10:41:07.923Z,64851.84
2023-02-05T10:46:15.290Z,64834.38
2023-02-05T10:51:28.166Z,64798.75
2023-02-05T10:56:34.182Z,64805.50
2023-02-05T11:01:41.610Z,64853.03
2023-02-05T11:06:48.784Z,64868.72
2023-02-05T11:11:58.545Z,64866.06
2023-02-05T11:17:10.165Z,64878.91
2023-02-05T11:22:28.936Z,64852.69
2023-02-05T11:27:36.376Z,64849.63
2023-02-05T11:32:40.744Z,64852.41
2023-02-05T11:37:45.538Z,64822.06
2023-02-05T11:43:01.261Z,64777.78
2023-02-05T11:48:08.109Z,64807.34
2023-02-05T11:53:17.466Z,64795.44
2023-02-05T11:58:36.258Z,64778.63
2023-02-05T12:03:41.528Z,64809.88
2023-02-05T12:08:49.574Z,64795.56
2023-02-05T12:14:06.344Z,64790.25
2023-02-05T12:19:19.789Z,64767.50
2023-02-05T12:24:48.825Z,64794.81
2023-02-05T12:30:17.973Z,64847.09
2023-02-05T12:35:35.017Z,64969.50
2023-02-05T12:40:49.816Z,64905.94
2023-02-05T12:46:04.342Z,65000.81
2023-02-05T12:51:24.644Z,64913.78
2023-02-05T12:56:41.554Z,64971.09
2023-02-05T13:01:52.695Z,64911.78
2023-02-05T13:07:05.662Z,64875.31
2023-02-05T13:12:15.238Z,64850.59
2023-02-05T13:17:24.396Z,64892.03
2023-02-05T13:22:50.320Z,64831.59
2023-02-05T13:28:14.580Z,64802.97
2023-02-05T13:33:20.292Z,64766.44
2023-02-05T13:38:43.021Z,64833.19
2023-02-05T13:44:13.532Z,64860.34
2023-02-05T13:49:48.092Z,64919.09
2023-02-05T13:55:14.217Z,64862.78
2023-02-05T14:00:19.443Z,64908.19
2023-02-05T14:05:33.348Z,64822.28
2023-02-05T14:10:42.190Z,64771.19
2023-02-05T14:15:46.711Z,64766.31
2023-02-05T14:20:52.585Z,64787.19
2023-02-05T14:26:12.084Z,64775.53
2023-02-05T14:31:58.833Z,64773.00
2023-02-05T14:37:05.030Z,64772.91
2023-02-05T14:42:20.555Z,64763.78
2023-02-05T16:58:36.189Z,64959.84
2023-02-05T17:03:42.725Z,64829.06
2023-02-05T17:08:55.543Z,64783.38
2023-02-05T17:14:23.188Z,64740.47
2023-02-05T17:19:30.419Z,64759.00
2023-02-05T17:24:34.981Z,64751.72
2023-02-05T17:29:40.927Z,64751.38
2023-02-05T17:34:46.333Z,64792.38
2023-02-05T17:39:51.649Z,64819.84
2023-02-05T17:44:58.093Z,64753.19
2023-02-05T17:50:02.915Z,64727.22
2023-02-05T17:55:09.777Z,64711.06
2023-02-05T18:00:19.330Z,64735.72
2023-02-05T18:05:24.372Z,64739.41
2023-02-05T18:10:32.237Z,64715.06
2023-02-05T18:15:38.681Z,64713.59
2023-02-05T18:20:43.492Z,64728.19
2023-02-05T18:25:49.238Z,64728.28
2023-02-05T18:31:00.968Z,64740.47
2023-02-05T18:36:08.336Z,64735.41
2023-02-05T18:41:14.742Z,64776.19
2023-02-05T18:46:21.302Z,64774.91
2023-02-05T18:51:25.920Z,64756.59
2023-02-05T18:56:30.356Z,64741.53
2023-02-05T19:01:38.257Z,64734.75
2023-02-05T19:06:43.029Z,64720.06
2023-02-05T19:11:47.684Z,64723.81
2023-02-05T19:16:54.388Z,64735.19
2023-02-05T19:22:02.021Z,64705.75
2023-02-05T19:27:06.513Z,64705.75
2023-02-05T19:32:12.802Z,64722.88
2023-02-05T19:37:17.887Z,64716.75
2023-02-05T19:42:22.463Z,64709.34
2023-02-05T19:47:29.405Z,64724.59
2023-02-05T19:52:34.092Z,64714.00
2023-02-05T19:57:38.654Z,64724.34
2023-02-05T20:02:44.842Z,64704.88
2023-02-05T20:07:50.553Z,64725.53
2023-02-05T20:12:54.840Z,64745.13
2023-02-05T20:18:00.734Z,64769.06
2023-02-05T20:23:05.313Z,64746.94
2023-02-05T20:28:10.014Z,64712.53
2023-02-05T20:33:16.183Z,64780.19
2023-02-05T20:38:20.756Z,64724.34
2023-02-05T20:43:25.577Z,64732.00
2023-02-05T20:48:31.981Z,64708.69
2023-02-05T20:53:36.903Z,64718.00
2023-02-05T20:58:41.778Z,64715.69
2023-02-05T21:03:50.899Z,64744.06
2023-02-05T21:08:56.077Z,64736.13
2023-02-05T21:14:00.592Z,64741.53
2023-02-05T21:19:08.922Z,64753.72
2023-02-05T21:24:16.205Z,64729.88
2023-02-05T21:29:22.220Z,64719.00
2023-02-05T21:34:29.711Z,64716.34
2023-02-05T21:39:36.127Z,64702.66
2023-02-05T21:44:40.720Z,64696.00
2023-02-05T21:49:46.654Z,64693.88
2023-02-05T21:54:51.721Z,64687.00
2023-02-05T21:59:56.223Z,64669.22
2023-02-05T22:05:02.025Z,64709.22
2023-02-05T22:10:07.237Z,64692.81
2023-02-05T22:15:14.030Z,64703.41
2023-02-05T22:20:20.620Z,64770.13
2023-02-05T22:25:25.079Z,64822.59
2023-02-05T22:30:29.638Z,64800.44
2023-02-05T22:35:36.393Z,64803.53
2023-02-05T22:40:41.104Z,64744.06
2023-02-05T22:45:45.802Z,64721.00
2023-02-05T22:50:51.945Z,64787.31
2023-02-05T22:55:56.547Z,64718.75
2023-02-05T23:01:09.311Z,64698.09
2023-02-05T23:06:17.144Z,64766.44
2023-02-05T23:11:22.568Z,64792.91
2023-02-05T23:16:29.332Z,64867.22
2023-02-05T23:21:37.016Z,64844.22
2023-02-05T23:26:44.562Z,64869.47
2023-02-05T23:31:49.419Z,64836.91
2023-02-05T23:36:55.321Z,64788.78
2023-02-05T23:41:59.849Z,64747.88
2023-02-05T23:47:04.644Z,64780.44
2023-02-05T23:52:10.589Z,64800.44
2023-02-05T23:57:15.121Z,64828.44
